Time,TemperatureF,DewpointF,PressureIn,WindDirection,WindDirectionDegrees,WindSpeedMPH,WindSpeedGustMPH,Humidity,HourlyPrecipIn,Conditions,Clouds,dailyrainin,SoftwareType,DateUTC
2013-04-07 01:02:00,42.0,42.0,-100.00,West,261,0.0,1.0,100,-99.99,,,-99.99,,2013-04-07 08:02:00,
2013-04-07 01:12:00,42.0,42.0,-100.00,West,261,0.0,1.0,100,-99.99,,,-99.99,,2013-04-07 08:12:00,
2013-04-07 03:03:00,43.0,43.0,-100.00,NNW,339,0.0,1.0,100,-99.99,,,-99.99,,2013-04-07 10:03:00,
2013-04-07 03:13:00,43.0,43.0,-100.00,NNW,339,0.0,1.0,100,-99.99,,,-99.99,,2013-04-07 10:13:00,
2013-04-07 05:02:00,42.0,42.0,-100.00,NW,326,3.0,7.0,100,-99.99,,,-99.99,,2013-04-07 12:02:00,
2013-04-07 05:12:00,42.0,42.0,-100.00,NW,326,3.0,7.0,100,-99.99,,,-99.99,,2013-04-07 12:12:00,
2013-04-07 06:20:00,41.0,41.0,-100.00,WNW,294,0.0,1.0,100,-99.99,,,-99.99,,2013-04-07 13:20:00,
2013-04-07 07:02:00,41.0,41.0,-100.00,WNW,294,0.0,1.0,100,-99.99,,,-99.99,,2013-04-07 14:02:00,
2013-04-07 07:12:00,41.0,41.0,-100.00,WNW,294,0.0,1.0,100,-99.99,,,-99.99,,2013-04-07 14:12:00,
2013-04-07 08:20:00,42.0,42.0,-100.00,East,88,0.0,2.0,100,-99.99,,,-99.99,,2013-04-07 15:20:00,
2013-04-07 09:03:00,42.0,42.0,-100.00,East,88,0.0,2.0,100,-99.99,,,-99.99,,2013-04-07 16:03:00,
2013-04-07 09:13:00,42.0,42.0,-100.00,East,88,0.0,2.0,100,-99.99,,,-99.99,,2013-04-07 16:13:00,
2013-04-07 11:00:00,47.0,42.0,-100.00,WNW,282,3.0,9.0,82,-99.99,,,-99.99,,2013-04-07 18:00:00,
2013-04-07 11:02:00,45.0,43.0,-100.00,SSE,168,2.0,6.0,92,-99.99,,,-99.99,,2013-04-07 18:02:00,
2013-04-07 11:13:00,45.0,43.0,-100.00,SSE,168,2.0,6.0,92,-99.99,,,-99.99,,2013-04-07 18:13:00,
2013-04-07 12:20:00,48.0,44.0,-100.00,SSW,210,1.0,5.0,85,-99.99,,,-99.99,,2013-04-07 19:20:00,
2013-04-07 13:00:00,47.0,44.0,-100.00,West,263,2.0,7.0,89,-99.99,,,-99.99,,2013-04-07 20:00:00,
2013-04-07 13:02:00,48.0,44.0,-100.00,SSW,210,1.0,5.0,85,-99.99,,,-99.99,,2013-04-07 20:02:00,
2013-04-07 13:13:00,48.0,44.0,-100.00,SSW,210,1.0,5.0,85,-99.99,,,-99.99,,2013-04-07 20:13:00,
2013-04-07 15:00:00,47.0,43.0,-100.00,WSW,240,2.0,6.0,85,-99.99,,,-99.99,,2013-04-07 22:00:00,
2013-04-07 16:20:00,49.0,42.0,-100.00,SSW,205,2.0,7.0,76,-99.99,,,-99.99,,2013-04-07 23:20:00,
2013-04-07 17:00:00,49.0,40.0,-100.00,SSW,206,3.0,8.0,70,-99.99,,,-99.99,,2013-04-08 00:00:00,
2013-04-07 17:02:00,49.0,42.0,-100.00,SSW,205,2.0,7.0,76,-99.99,,,-99.99,,2013-04-08 00:02:00,
2013-04-07 17:12:00,49.0,42.0,-100.00,SSW,205,2.0,7.0,76,-99.99,,,-99.99,,2013-04-08 00:12:00,
2013-04-07 19:00:00,46.0,41.0,-100.00,WSW,253,1.0,3.0,82,-99.99,,,-99.99,,2013-04-08 02:00:00,
2013-04-07 20:20:00,44.0,40.0,-100.00,SSW,209,2.0,6.0,85,-99.99,,,-99.99,,2013-04-08 03:20:00,
2013-04-07 21:03:00,44.0,40.0,-100.00,SSW,209,2.0,6.0,85,-99.99,,,-99.99,,2013-04-08 04:03:00,
2013-04-07 21:12:00,44.0,40.0,-100.00,SSW,209,2.0,6.0,85,-99.99,,,-99.99,,2013-04-08 04:12:00,
2013-04-07 23:02:00,45.0,40.0,-100.00,South,181,2.0,8.0,82,-99.99,,,-99.99,,2013-04-08 06:02:00,
2013-04-07 23:12:00,45.0,40.0,-100.00,South,181,2.0,8.0,82,-99.99,,,-99.99,,2013-04-08 06:12:00,